sensor_id;sensor_type;location;lat;lon;timestamp;P1;durP1;ratioP1;P2;durP2;ratioP2
18669;SDS011;9464;44.918;9.670;2022-10-22T00:00:35;30.20;;;16.57;;
18669;SDS011;9464;44.918;9.670;2022-10-22T00:03:04;30.90;;;16.43;;
18669;SDS011;9464;44.918;9.670;2022-10-22T00:05:32;31.80;;;15.23;;
18669;SDS011;9464;44.918;9.670;2022-10-22T00:08:00;29.20;;;14.30;;
18669;SDS011;9464;44.918;9.670;2022-10-22T00:10:30;27.63;;;15.47;;
18669;SDS011;9464;44.918;9.670;2022-10-22T00:12:59;34.33;;;15.23;;
18669;SDS011;9464;44.918;9.670;2022-10-22T00:15:27;33.67;;;17.17;;
18669;SDS011;9464;44.918;9.670;2022-10-22T00:17:55;39.20;;;18.63;;
18669;SDS011;9464;44.918;9.670;2022-10-22T00:20:24;44.37;;;20.57;;
18669;SDS011;9464;44.918;9.670;2022-10-22T00:22:52;44.53;;;19.63;;
18669;SDS011;9464;44.918;9.670;2022-10-22T00:25:21;54.70;;;22.33;;
18669;SDS011;9464;44.918;9.670;2022-10-22T00:27:50;48.80;;;21.83;;
18669;SDS011;9464;44.918;9.670;2022-10-22T00:30:19;46.90;;;21.27;;
18669;SDS011;9464;44.918;9.670;2022-10-22T00:32:47;45.10;;;20.17;;
18669;SDS011;9464;44.918;9.670;2022-10-22T00:35:15;47.20;;;23.40;;
18669;SDS011;9464;44.918;9.670;2022-10-22T00:37:44;57.80;;;26.50;;
18669;SDS011;9464;44.918;9.670;2022-10-22T00:40:12;59.83;;;27.30;;
18669;SDS011;9464;44.918;9.670;2022-10-22T00:42:41;60.23;;;27.87;;
18669;SDS011;9464;44.918;9.670;2022-10-22T00:45:18;58.70;;;27.10;;
18669;SDS011;9464;44.918;9.670;2022-10-22T00:47:48;50.70;;;25.93;;
18669;SDS011;9464;44.918;9.670;2022-10-22T00:50:18;63.97;;;28.00;;
18669;SDS011;9464;44.918;9.670;2022-10-22T00:52:48;61.93;;;26.40;;
18669;SDS011;9464;44.918;9.670;2022-10-22T00:55:17;54.53;;;26.87;;
18669;SDS011;9464;44.918;9.670;2022-10-22T00:57:46;55.13;;;26.00;;
18669;SDS011;9464;44.918;9.670;2022-10-22T01:00:15;56.43;;;27.07;;
18669;SDS011;9464;44.918;9.670;2022-10-22T01:02:45;52.40;;;25.30;;
18669;SDS011;9464;44.918;9.670;2022-10-22T01:05:14;52.53;;;25.73;;
18669;SDS011;9464;44.918;9.670;2022-10-22T01:07:44;48.90;;;24.00;;
18669;SDS011;9464;44.918;9.670;2022-10-22T01:10:17;50.53;;;24.37;;
18669;SDS011;9464;44.918;9.670;2022-10-22T01:12:49;54.13;;;25.43;;
18669;SDS011;9464;44.918;9.670;2022-10-22T01:15:21;45.27;;;23.77;;
18669;SDS011;9464;44.918;9.670;2022-10-22T01:17:54;44.70;;;23.03;;
18669;SDS011;9464;44.918;9.670;2022-10-22T01:20:39;39.43;;;20.97;;
18669;SDS011;9464;44.918;9.670;2022-10-22T01:23:19;40.50;;;20.77;;
18669;SDS011;9464;44.918;9.670;2022-10-22T01:25:49;41.47;;;21.47;;
18669;SDS011;9464;44.918;9.670;2022-10-22T01:28:22;37.87;;;21.03;;
18669;SDS011;9464;44.918;9.670;2022-10-22T01:30:56;41.53;;;20.97;;
18669;SDS011;9464;44.918;9.670;2022-10-22T01:33:25;39.40;;;20.03;;
18669;SDS011;9464;44.918;9.670;2022-10-22T01:35:53;47.90;;;22.50;;
18669;SDS011;9464;44.918;9.670;2022-10-22T01:38:22;40.57;;;21.60;;
18669;SDS011;9464;44.918;9.670;2022-10-22T01:40:52;44.83;;;20.77;;
18669;SDS011;9464;44.918;9.670;2022-10-22T01:43:20;41.83;;;22.17;;
18669;SDS011;9464;44.918;9.670;2022-10-22T01:45:49;39.97;;;21.53;;
18669;SDS011;9464;44.918;9.670;2022-10-22T01:48:24;46.87;;;21.20;;
18669;SDS011;9464;44.918;9.670;2022-10-22T01:51:02;39.83;;;21.73;;
18669;SDS011;9464;44.918;9.670;2022-10-22T01:53:34;41.47;;;20.70;;
18669;SDS011;9464;44.918;9.670;2022-10-22T01:56:16;39.20;;;21.57;;
18669;SDS011;9464;44.918;9.670;2022-10-22T01:58:51;41.03;;;21.00;;
18669;SDS011;9464;44.918;9.670;2022-10-22T02:01:23;40.67;;;20.73;;
18669;SDS011;9464;44.918;9.670;2022-10-22T02:03:58;47.40;;;21.10;;
18669;SDS011;9464;44.918;9.670;2022-10-22T02:06:27;35.20;;;21.33;;
18669;SDS011;9464;44.918;9.670;2022-10-22T02:08:56;47.63;;;19.80;;
18669;SDS011;9464;44.918;9.670;2022-10-22T02:11:25;39.77;;;19.87;;
18669;SDS011;9464;44.918;9.670;2022-10-22T02:13:55;29.77;;;18.63;;
18669;SDS011;9464;44.918;9.670;2022-10-22T02:16:26;34.73;;;17.80;;
18669;SDS011;9464;44.918;9.670;2022-10-22T02:18:57;31.20;;;17.17;;
18669;SDS011;9464;44.918;9.670;2022-10-22T02:21:26;25.40;;;15.83;;
18669;SDS011;9464;44.918;9.670;2022-10-22T02:23:55;29.03;;;16.53;;
18669;SDS011;9464;44.918;9.670;2022-10-22T02:26:24;34.47;;;16.47;;
18669;SDS011;9464;44.918;9.670;2022-10-22T02:28:56;30.23;;;16.10;;
18669;SDS011;9464;44.918;9.670;2022-10-22T02:31:27;27.00;;;15.87;;
18669;SDS011;9464;44.918;9.670;2022-10-22T02:33:58;32.20;;;16.90;;
18669;SDS011;9464;44.918;9.670;2022-10-22T02:36:30;28.33;;;16.17;;
18669;SDS011;9464;44.918;9.670;2022-10-22T02:38:59;31.53;;;17.37;;
18669;SDS011;9464;44.918;9.670;2022-10-22T02:41:27;28.97;;;17.20;;
18669;SDS011;9464;44.918;9.670;2022-10-22T02:43:56;29.97;;;17.23;;
18669;SDS011;9464;44.918;9.670;2022-10-22T02:46:27;31.00;;;16.97;;
18669;SDS011;9464;44.918;9.670;2022-10-22T02:48:55;30.57;;;17.40;;
18669;SDS011;9464;44.918;9.670;2022-10-22T02:51:25;33.23;;;19.33;;
18669;SDS011;9464;44.918;9.670;2022-10-22T02:53:54;32.50;;;18.37;;
18669;SDS011;9464;44.918;9.670;2022-10-22T02:56:22;35.80;;;18.83;;
18669;SDS011;9464;44.918;9.670;2022-10-22T02:58:50;43.37;;;20.23;;
18669;SDS011;9464;44.918;9.670;2022-10-22T03:01:19;34.90;;;18.77;;
18669;SDS011;9464;44.918;9.670;2022-10-22T03:03:47;39.17;;;20.30;;
18669;SDS011;9464;44.918;9.670;2022-10-22T03:06:16;41.73;;;19.53;;
18669;SDS011;9464;44.918;9.670;2022-10-22T03:08:45;36.23;;;19.70;;
18669;SDS011;9464;44.918;9.670;2022-10-22T03:11:14;31.80;;;19.17;;
18669;SDS011;9464;44.918;9.670;2022-10-22T03:13:42;38.30;;;19.17;;
18669;SDS011;9464;44.918;9.670;2022-10-22T03:16:11;37.73;;;19.17;;
18669;SDS011;9464;44.918;9.670;2022-10-22T03:18:39;40.67;;;20.27;;
18669;SDS011;9464;44.918;9.670;2022-10-22T03:21:09;32.97;;;19.13;;
18669;SDS011;9464;44.918;9.670;2022-10-22T03:23:39;38.70;;;20.17;;
18669;SDS011;9464;44.918;9.670;2022-10-22T03:26:11;35.03;;;19.60;;
18669;SDS011;9464;44.918;9.670;2022-10-22T03:28:40;35.63;;;18.07;;
18669;SDS011;9464;44.918;9.670;2022-10-22T03:31:09;35.07;;;18.67;;
18669;SDS011;9464;44.918;9.670;2022-10-22T03:33:37;36.97;;;18.77;;
18669;SDS011;9464;44.918;9.670;2022-10-22T03:36:06;35.43;;;18.13;;
18669;SDS011;9464;44.918;9.670;2022-10-22T03:38:34;32.67;;;17.90;;
18669;SDS011;9464;44.918;9.670;2022-10-22T03:41:03;38.30;;;19.43;;
18669;SDS011;9464;44.918;9.670;2022-10-22T03:43:34;31.80;;;18.40;;
18669;SDS011;9464;44.918;9.670;2022-10-22T03:46:02;35.57;;;18.23;;
18669;SDS011;9464;44.918;9.670;2022-10-22T03:48:31;30.80;;;16.87;;
18669;SDS011;9464;44.918;9.670;2022-10-22T03:50:59;29.30;;;16.83;;
18669;SDS011;9464;44.918;9.670;2022-10-22T03:53:28;27.10;;;16.97;;
18669;SDS011;9464;44.918;9.670;2022-10-22T03:55:56;29.07;;;16.97;;
18669;SDS011;9464;44.918;9.670;2022-10-22T03:58:24;30.47;;;17.40;;
18669;SDS011;9464;44.918;9.670;2022-10-22T04:00:54;31.23;;;17.13;;
18669;SDS011;9464;44.918;9.670;2022-10-22T04:03:23;41.43;;;19.97;;
18669;SDS011;9464;44.918;9.670;2022-10-22T04:05:51;37.60;;;20.57;;
18669;SDS011;9464;44.918;9.670;2022-10-22T04:08:20;43.17;;;21.73;;
18669;SDS011;9464;44.918;9.670;2022-10-22T04:10:51;43.17;;;22.03;;
18669;SDS011;9464;44.918;9.670;2022-10-22T04:13:20;47.83;;;23.00;;
18669;SDS011;9464;44.918;9.670;2022-10-22T04:15:48;37.87;;;21.83;;
18669;SDS011;9464;44.918;9.670;2022-10-22T04:18:19;43.13;;;21.70;;
18669;SDS011;9464;44.918;9.670;2022-10-22T04:20:48;43.30;;;21.57;;
18669;SDS011;9464;44.918;9.670;2022-10-22T04:23:18;42.73;;;22.70;;
18669;SDS011;9464;44.918;9.670;2022-10-22T04:25:47;44.60;;;23.73;;
18669;SDS011;9464;44.918;9.670;2022-10-22T04:28:15;41.57;;;22.37;;
18669;SDS011;9464;44.918;9.670;2022-10-22T04:30:43;47.23;;;24.57;;
18669;SDS011;9464;44.918;9.670;2022-10-22T04:33:12;46.53;;;23.10;;
18669;SDS011;9464;44.918;9.670;2022-10-22T04:35:41;44.03;;;22.97;;
18669;SDS011;9464;44.918;9.670;2022-10-22T04:38:10;43.83;;;23.57;;
18669;SDS011;9464;44.918;9.670;2022-10-22T04:40:38;46.50;;;23.83;;
18669;SDS011;9464;44.918;9.670;2022-10-22T04:43:07;45.20;;;22.50;;
18669;SDS011;9464;44.918;9.670;2022-10-22T04:45:35;46.33;;;23.53;;
18669;SDS011;9464;44.918;9.670;2022-10-22T04:48:04;44.80;;;23.07;;
18669;SDS011;9464;44.918;9.670;2022-10-22T04:50:32;45.47;;;24.57;;
18669;SDS011;9464;44.918;9.670;2022-10-22T04:53:02;43.93;;;22.37;;
18669;SDS011;9464;44.918;9.670;2022-10-22T04:55:30;47.43;;;24.77;;
18669;SDS011;9464;44.918;9.670;2022-10-22T04:57:59;41.90;;;22.40;;
18669;SDS011;9464;44.918;9.670;2022-10-22T05:00:27;40.77;;;22.53;;
18669;SDS011;9464;44.918;9.670;2022-10-22T05:02:55;41.47;;;22.13;;
18669;SDS011;9464;44.918;9.670;2022-10-22T05:05:24;44.87;;;22.10;;
18669;SDS011;9464;44.918;9.670;2022-10-22T05:07:52;42.53;;;23.30;;
18669;SDS011;9464;44.918;9.670;2022-10-22T05:10:22;39.77;;;22.13;;
18669;SDS011;9464;44.918;9.670;2022-10-22T05:12:50;42.27;;;21.77;;
18669;SDS011;9464;44.918;9.670;2022-10-22T05:15:19;38.23;;;20.90;;
18669;SDS011;9464;44.918;9.670;2022-10-22T05:17:47;38.67;;;21.27;;
18669;SDS011;9464;44.918;9.670;2022-10-22T05:20:15;41.47;;;22.60;;
18669;SDS011;9464;44.918;9.670;2022-10-22T05:22:44;39.90;;;21.33;;
18669;SDS011;9464;44.918;9.670;2022-10-22T05:25:12;41.73;;;20.57;;
18669;SDS011;9464;44.918;9.670;2022-10-22T05:27:42;37.90;;;21.23;;
18669;SDS011;9464;44.918;9.670;2022-10-22T05:30:11;36.07;;;20.43;;
18669;SDS011;9464;44.918;9.670;2022-10-22T05:32:39;37.97;;;20.63;;
18669;SDS011;9464;44.918;9.670;2022-10-22T05:35:08;34.50;;;20.63;;
18669;SDS011;9464;44.918;9.670;2022-10-22T05:37:36;30.83;;;19.47;;
18669;SDS011;9464;44.918;9.670;2022-10-22T05:40:05;33.23;;;18.83;;
18669;SDS011;9464;44.918;9.670;2022-10-22T05:42:53;36.83;;;19.30;;
18669;SDS011;9464;44.918;9.670;2022-10-22T05:45:21;37.27;;;20.20;;
18669;SDS011;9464;44.918;9.670;2022-10-22T05:47:50;35.83;;;19.40;;
18669;SDS011;9464;44.918;9.670;2022-10-22T05:50:18;37.87;;;20.00;;
18669;SDS011;9464;44.918;9.670;2022-10-22T05:52:46;37.07;;;20.33;;
18669;SDS011;9464;44.918;9.670;2022-10-22T05:55:15;37.33;;;19.57;;
18669;SDS011;9464;44.918;9.670;2022-10-22T05:57:43;31.67;;;18.03;;
18669;SDS011;9464;44.918;9.670;2022-10-22T06:00:13;35.03;;;19.93;;
18669;SDS011;9464;44.918;9.670;2022-10-22T06:02:42;31.57;;;19.30;;
18669;SDS011;9464;44.918;9.670;2022-10-22T06:05:10;31.47;;;18.53;;
18669;SDS011;9464;44.918;9.670;2022-10-22T06:07:39;30.77;;;18.90;;
18669;SDS011;9464;44.918;9.670;2022-10-22T06:10:08;32.57;;;19.23;;
18669;SDS011;9464;44.918;9.670;2022-10-22T06:12:37;32.97;;;18.63;;
18669;SDS011;9464;44.918;9.670;2022-10-22T06:15:06;33.90;;;19.27;;
18669;SDS011;9464;44.918;9.670;2022-10-22T06:17:36;31.70;;;18.93;;
18669;SDS011;9464;44.918;9.670;2022-10-22T06:20:05;31.83;;;17.53;;
18669;SDS011;9464;44.918;9.670;2022-10-22T06:22:33;29.83;;;18.87;;
18669;SDS011;9464;44.918;9.670;2022-10-22T06:25:03;33.70;;;18.50;;
18669;SDS011;9464;44.918;9.670;2022-10-22T06:27:31;31.50;;;17.33;;
18669;SDS011;9464;44.918;9.670;2022-10-22T06:29:59;34.60;;;18.60;;
18669;SDS011;9464;44.918;9.670;2022-10-22T06:32:28;31.23;;;18.70;;
18669;SDS011;9464;44.918;9.670;2022-10-22T06:34:58;29.50;;;17.10;;
18669;SDS011;9464;44.918;9.670;2022-10-22T06:37:26;35.57;;;19.63;;
18669;SDS011;9464;44.918;9.670;2022-10-22T06:39:54;36.00;;;19.00;;
18669;SDS011;9464;44.918;9.670;2022-10-22T06:42:23;33.47;;;18.97;;
18669;SDS011;9464;44.918;9.670;2022-10-22T06:44:51;32.87;;;19.33;;
18669;SDS011;9464;44.918;9.670;2022-10-22T06:47:19;32.20;;;18.20;;
18669;SDS011;9464;44.918;9.670;2022-10-22T06:49:48;55.20;;;31.77;;
18669;SDS011;9464;44.918;9.670;2022-10-22T06:52:18;75.20;;;45.67;;
18669;SDS011;9464;44.918;9.670;2022-10-22T06:54:46;33.27;;;20.73;;
18669;SDS011;9464;44.918;9.670;2022-10-22T06:57:14;30.03;;;17.97;;
18669;SDS011;9464;44.918;9.670;2022-10-22T06:59:43;36.57;;;19.27;;
18669;SDS011;9464;44.918;9.670;2022-10-22T07:02:11;39.20;;;20.27;;
18669;SDS011;9464;44.918;9.670;2022-10-22T07:04:39;31.03;;;19.00;;
18669;SDS011;9464;44.918;9.670;2022-10-22T07:07:08;33.17;;;18.60;;
18669;SDS011;9464;44.918;9.670;2022-10-22T07:09:37;32.23;;;18.43;;
18669;SDS011;9464;44.918;9.670;2022-10-22T07:12:06;27.10;;;17.40;;
18669;SDS011;9464;44.918;9.670;2022-10-22T07:14:34;27.93;;;18.03;;
18669;SDS011;9464;44.918;9.670;2022-10-22T07:17:03;28.53;;;16.87;;
18669;SDS011;9464;44.918;9.670;2022-10-22T07:19:31;44.47;;;18.80;;
18669;SDS011;9464;44.918;9.670;2022-10-22T07:22:00;29.30;;;17.30;;
18669;SDS011;9464;44.918;9.670;2022-10-22T07:24:28;32.13;;;17.83;;
18669;SDS011;9464;44.918;9.670;2022-10-22T07:26:58;31.10;;;17.83;;
18669;SDS011;9464;44.918;9.670;2022-10-22T07:29:26;30.17;;;18.23;;
18669;SDS011;9464;44.918;9.670;2022-10-22T07:31:55;27.10;;;18.00;;
18669;SDS011;9464;44.918;9.670;2022-10-22T07:34:23;27.77;;;17.97;;
18669;SDS011;9464;44.918;9.670;2022-10-22T07:36:52;30.03;;;18.10;;
18669;SDS011;9464;44.918;9.670;2022-10-22T07:39:22;32.60;;;17.20;;
18669;SDS011;9464;44.918;9.670;2022-10-22T07:41:51;35.40;;;17.47;;
18669;SDS011;9464;44.918;9.670;2022-10-22T07:44:21;31.83;;;18.87;;
18669;SDS011;9464;44.918;9.670;2022-10-22T07:46:52;34.47;;;17.87;;
18669;SDS011;9464;44.918;9.670;2022-10-22T07:49:21;58.27;;;36.00;;
18669;SDS011;9464;44.918;9.670;2022-10-22T07:51:49;32.07;;;21.13;;
18669;SDS011;9464;44.918;9.670;2022-10-22T07:54:18;33.63;;;17.20;;
18669;SDS011;9464;44.918;9.670;2022-10-22T07:56:46;28.57;;;15.30;;
18669;SDS011;9464;44.918;9.670;2022-10-22T07:59:14;29.83;;;16.37;;
18669;SDS011;9464;44.918;9.670;2022-10-22T08:01:44;31.03;;;17.57;;
18669;SDS011;9464;44.918;9.670;2022-10-22T08:04:13;27.10;;;16.53;;
18669;SDS011;9464;44.918;9.670;2022-10-22T08:06:41;26.50;;;15.43;;
18669;SDS011;9464;44.918;9.670;2022-10-22T08:09:13;25.83;;;16.20;;
18669;SDS011;9464;44.918;9.670;2022-10-22T08:11:41;25.20;;;15.20;;
18669;SDS011;9464;44.918;9.670;2022-10-22T08:14:10;29.17;;;15.33;;
18669;SDS011;9464;44.918;9.670;2022-10-22T08:16:39;26.40;;;15.83;;
18669;SDS011;9464;44.918;9.670;2022-10-22T08:19:09;23.27;;;15.50;;
18669;SDS011;9464;44.918;9.670;2022-10-22T08:21:37;26.60;;;15.63;;
18669;SDS011;9464;44.918;9.670;2022-10-22T08:24:06;23.87;;;15.17;;
18669;SDS011;9464;44.918;9.670;2022-10-22T08:26:34;25.10;;;16.07;;
18669;SDS011;9464;44.918;9.670;2022-10-22T08:29:03;27.83;;;15.77;;
18669;SDS011;9464;44.918;9.670;2022-10-22T08:31:31;27.03;;;15.40;;
18669;SDS011;9464;44.918;9.670;2022-10-22T08:34:00;27.47;;;15.23;;
18669;SDS011;9464;44.918;9.670;2022-10-22T08:36:29;29.37;;;16.67;;
18669;SDS011;9464;44.918;9.670;2022-10-22T08:38:58;26.57;;;15.10;;
18669;SDS011;9464;44.918;9.670;2022-10-22T08:41:26;57.73;;;34.10;;
18669;SDS011;9464;44.918;9.670;2022-10-22T08:44:06;43.53;;;24.57;;
18669;SDS011;9464;44.918;9.670;2022-10-22T08:46:41;28.60;;;18.07;;
18669;SDS011;9464;44.918;9.670;2022-10-22T08:49:14;28.47;;;16.60;;
18669;SDS011;9464;44.918;9.670;2022-10-22T08:51:45;23.83;;;15.97;;
18669;SDS011;9464;44.918;9.670;2022-10-22T08:54:16;31.23;;;15.77;;
18669;SDS011;9464;44.918;9.670;2022-10-22T08:56:47;27.47;;;15.23;;
18669;SDS011;9464;44.918;9.670;2022-10-22T08:59:19;30.40;;;15.67;;
18669;SDS011;9464;44.918;9.670;2022-10-22T09:01:50;29.53;;;15.73;;
18669;SDS011;9464;44.918;9.670;2022-10-22T09:04:21;26.53;;;14.70;;
18669;SDS011;9464;44.918;9.670;2022-10-22T09:06:52;28.57;;;15.83;;
18669;SDS011;9464;44.918;9.670;2022-10-22T09:09:22;26.37;;;15.33;;
18669;SDS011;9464;44.918;9.670;2022-10-22T09:11:53;36.27;;;18.00;;
18669;SDS011;9464;44.918;9.670;2022-10-22T09:14:22;31.53;;;16.17;;
18669;SDS011;9464;44.918;9.670;2022-10-22T09:16:57;27.47;;;14.63;;
18669;SDS011;9464;44.918;9.670;2022-10-22T09:19:31;28.97;;;16.53;;
18669;SDS011;9464;44.918;9.670;2022-10-22T09:22:03;35.67;;;18.13;;
18669;SDS011;9464;44.918;9.670;2022-10-22T09:24:38;32.17;;;17.00;;
18669;SDS011;9464;44.918;9.670;2022-10-22T09:27:09;27.17;;;15.90;;
18669;SDS011;9464;44.918;9.670;2022-10-22T09:29:38;35.00;;;17.57;;
18669;SDS011;9464;44.918;9.670;2022-10-22T09:32:06;31.57;;;17.77;;
18669;SDS011;9464;44.918;9.670;2022-10-22T09:34:35;34.83;;;18.67;;
18669;SDS011;9464;44.918;9.670;2022-10-22T09:37:06;34.20;;;18.00;;
18669;SDS011;9464;44.918;9.670;2022-10-22T09:39:37;30.90;;;18.03;;
18669;SDS011;9464;44.918;9.670;2022-10-22T09:42:06;31.87;;;17.67;;
18669;SDS011;9464;44.918;9.670;2022-10-22T09:44:35;30.13;;;17.07;;
18669;SDS011;9464;44.918;9.670;2022-10-22T09:47:04;35.77;;;18.10;;
18669;SDS011;9464;44.918;9.670;2022-10-22T09:49:33;33.30;;;19.23;;
18669;SDS011;9464;44.918;9.670;2022-10-22T09:52:02;31.03;;;17.57;;
18669;SDS011;9464;44.918;9.670;2022-10-22T09:54:38;31.87;;;18.37;;
18669;SDS011;9464;44.918;9.670;2022-10-22T09:57:12;30.40;;;17.80;;
18669;SDS011;9464;44.918;9.670;2022-10-22T09:59:42;28.33;;;17.43;;
18669;SDS011;9464;44.918;9.670;2022-10-22T10:02:13;34.50;;;17.50;;
18669;SDS011;9464;44.918;9.670;2022-10-22T10:05:02;35.53;;;17.17;;
18669;SDS011;9464;44.918;9.670;2022-10-22T10:07:31;30.13;;;17.90;;
18669;SDS011;9464;44.918;9.670;2022-10-22T10:10:01;32.57;;;17.83;;
18669;SDS011;9464;44.918;9.670;2022-10-22T10:12:35;33.40;;;17.63;;
18669;SDS011;9464;44.918;9.670;2022-10-22T10:15:09;32.73;;;18.57;;
18669;SDS011;9464;44.918;9.670;2022-10-22T10:17:41;33.30;;;19.20;;
18669;SDS011;9464;44.918;9.670;2022-10-22T10:20:16;31.70;;;18.43;;
18669;SDS011;9464;44.918;9.670;2022-10-22T10:22:51;33.30;;;18.17;;
18669;SDS011;9464;44.918;9.670;2022-10-22T10:25:29;28.13;;;17.43;;
18669;SDS011;9464;44.918;9.670;2022-10-22T10:28:00;34.30;;;18.63;;
18669;SDS011;9464;44.918;9.670;2022-10-22T10:30:31;41.13;;;19.90;;
18669;SDS011;9464;44.918;9.670;2022-10-22T10:33:07;33.97;;;19.73;;
18669;SDS011;9464;44.918;9.670;2022-10-22T10:35:42;35.43;;;19.97;;
18669;SDS011;9464;44.918;9.670;2022-10-22T10:38:20;33.60;;;19.77;;
18669;SDS011;9464;44.918;9.670;2022-10-22T10:40:58;34.60;;;19.60;;
18669;SDS011;9464;44.918;9.670;2022-10-22T10:43:31;38.17;;;20.43;;
18669;SDS011;9464;44.918;9.670;2022-10-22T10:46:04;33.93;;;19.33;;
18669;SDS011;9464;44.918;9.670;2022-10-22T10:48:38;35.27;;;20.23;;
18669;SDS011;9464;44.918;9.670;2022-10-22T10:51:11;36.23;;;20.33;;
18669;SDS011;9464;44.918;9.670;2022-10-22T10:53:50;35.80;;;20.13;;
18669;SDS011;9464;44.918;9.670;2022-10-22T10:56:27;34.27;;;19.97;;
18669;SDS011;9464;44.918;9.670;2022-10-22T10:59:06;33.13;;;19.13;;
18669;SDS011;9464;44.918;9.670;2022-10-22T11:01:36;36.47;;;19.10;;
18669;SDS011;9464;44.918;9.670;2022-10-22T11:04:10;33.50;;;19.53;;
18669;SDS011;9464;44.918;9.670;2022-10-22T11:06:41;34.13;;;18.83;;
18669;SDS011;9464;44.918;9.670;2022-10-22T11:09:20;31.67;;;19.03;;
18669;SDS011;9464;44.918;9.670;2022-10-22T11:11:52;37.73;;;18.20;;
18669;SDS011;9464;44.918;9.670;2022-10-22T11:14:23;32.43;;;18.93;;
18669;SDS011;9464;44.918;9.670;2022-10-22T11:16:56;34.10;;;19.23;;
18669;SDS011;9464;44.918;9.670;2022-10-22T11:19:29;37.90;;;19.70;;
18669;SDS011;9464;44.918;9.670;2022-10-22T11:22:18;31.33;;;18.10;;
18669;SDS011;9464;44.918;9.670;2022-10-22T11:24:53;27.73;;;16.97;;
18669;SDS011;9464;44.918;9.670;2022-10-22T11:27:26;34.37;;;20.63;;
18669;SDS011;9464;44.918;9.670;2022-10-22T11:29:58;33.90;;;20.17;;
18669;SDS011;9464;44.918;9.670;2022-10-22T11:32:28;35.10;;;21.33;;
18669;SDS011;9464;44.918;9.670;2022-10-22T11:34:58;35.10;;;20.23;;
18669;SDS011;9464;44.918;9.670;2022-10-22T11:37:29;33.70;;;20.57;;
18669;SDS011;9464;44.918;9.670;2022-10-22T11:40:02;32.60;;;20.67;;
18669;SDS011;9464;44.918;9.670;2022-10-22T11:42:33;37.10;;;19.73;;
18669;SDS011;9464;44.918;9.670;2022-10-22T11:45:02;29.10;;;18.43;;
18669;SDS011;9464;44.918;9.670;2022-10-22T11:47:33;28.73;;;18.83;;
18669;SDS011;9464;44.918;9.670;2022-10-22T11:50:15;36.23;;;20.10;;
18669;SDS011;9464;44.918;9.670;2022-10-22T11:52:48;39.27;;;21.33;;
18669;SDS011;9464;44.918;9.670;2022-10-22T11:55:28;31.93;;;18.77;;
18669;SDS011;9464;44.918;9.670;2022-10-22T11:57:59;33.73;;;18.97;;
18669;SDS011;9464;44.918;9.670;2022-10-22T12:00:32;39.07;;;20.70;;
18669;SDS011;9464;44.918;9.670;2022-10-22T12:03:02;37.47;;;18.50;;
18669;SDS011;9464;44.918;9.670;2022-10-22T12:05:35;27.80;;;16.60;;
18669;SDS011;9464;44.918;9.670;2022-10-22T12:11:02;32.17;;;18.97;;
18669;SDS011;9464;44.918;9.670;2022-10-22T12:13:33;35.63;;;19.23;;
18669;SDS011;9464;44.918;9.670;2022-10-22T12:16:19;36.57;;;19.13;;
18669;SDS011;9464;44.918;9.670;2022-10-22T12:19:13;32.70;;;20.73;;
18669;SDS011;9464;44.918;9.670;2022-10-22T12:21:43;33.27;;;20.63;;
18669;SDS011;9464;44.918;9.670;2022-10-22T12:24:15;39.57;;;22.37;;
18669;SDS011;9464;44.918;9.670;2022-10-22T12:26:44;35.67;;;19.90;;
18669;SDS011;9464;44.918;9.670;2022-10-22T12:29:16;33.97;;;19.57;;
18669;SDS011;9464;44.918;9.670;2022-10-22T12:31:45;35.37;;;21.43;;
18669;SDS011;9464;44.918;9.670;2022-10-22T12:34:15;38.50;;;20.70;;
18669;SDS011;9464;44.918;9.670;2022-10-22T12:36:44;41.83;;;22.77;;
18669;SDS011;9464;44.918;9.670;2022-10-22T12:39:14;33.27;;;19.40;;
18669;SDS011;9464;44.918;9.670;2022-10-22T12:41:43;36.87;;;20.10;;
18669;SDS011;9464;44.918;9.670;2022-10-22T12:44:12;32.00;;;20.77;;
18669;SDS011;9464;44.918;9.670;2022-10-22T12:46:42;33.53;;;20.27;;
18669;SDS011;9464;44.918;9.670;2022-10-22T12:49:13;30.33;;;18.33;;
18669;SDS011;9464;44.918;9.670;2022-10-22T12:51:42;36.17;;;19.73;;
18669;SDS011;9464;44.918;9.670;2022-10-22T12:54:14;32.10;;;19.93;;
18669;SDS011;9464;44.918;9.670;2022-10-22T12:56:44;37.40;;;21.40;;
18669;SDS011;9464;44.918;9.670;2022-10-22T12:59:15;37.97;;;20.43;;
18669;SDS011;9464;44.918;9.670;2022-10-22T13:01:47;34.30;;;19.27;;
18669;SDS011;9464;44.918;9.670;2022-10-22T13:04:30;31.77;;;19.03;;
18669;SDS011;9464;44.918;9.670;2022-10-22T13:07:12;36.00;;;20.47;;
18669;SDS011;9464;44.918;9.670;2022-10-22T13:09:49;38.10;;;20.93;;
18669;SDS011;9464;44.918;9.670;2022-10-22T13:12:24;39.70;;;20.03;;
18669;SDS011;9464;44.918;9.670;2022-10-22T13:14:53;35.37;;;20.13;;
18669;SDS011;9464;44.918;9.670;2022-10-22T13:20:15;32.57;;;19.50;;
18669;SDS011;9464;44.918;9.670;2022-10-22T13:22:53;33.30;;;20.23;;
18669;SDS011;9464;44.918;9.670;2022-10-22T13:25:23;31.17;;;19.20;;
18669;SDS011;9464;44.918;9.670;2022-10-22T13:27:56;31.63;;;19.87;;
18669;SDS011;9464;44.918;9.670;2022-10-22T13:30:25;28.67;;;19.10;;
18669;SDS011;9464;44.918;9.670;2022-10-22T13:32:54;36.60;;;20.00;;
18669;SDS011;9464;44.918;9.670;2022-10-22T13:35:25;37.13;;;20.60;;
18669;SDS011;9464;44.918;9.670;2022-10-22T13:37:54;33.50;;;18.97;;
18669;SDS011;9464;44.918;9.670;2022-10-22T13:40:22;31.73;;;18.77;;
18669;SDS011;9464;44.918;9.670;2022-10-22T13:42:51;34.23;;;20.20;;
18669;SDS011;9464;44.918;9.670;2022-10-22T13:45:19;31.50;;;19.60;;
18669;SDS011;9464;44.918;9.670;2022-10-22T13:47:49;34.57;;;21.13;;
18669;SDS011;9464;44.918;9.670;2022-10-22T13:50:19;37.30;;;20.90;;
18669;SDS011;9464;44.918;9.670;2022-10-22T13:52:50;31.73;;;20.20;;
18669;SDS011;9464;44.918;9.670;2022-10-22T13:55:20;30.13;;;18.80;;
18669;SDS011;9464;44.918;9.670;2022-10-22T13:57:50;29.10;;;19.03;;
18669;SDS011;9464;44.918;9.670;2022-10-22T14:00:20;37.53;;;20.23;;
18669;SDS011;9464;44.918;9.670;2022-10-22T14:02:49;35.50;;;21.43;;
18669;SDS011;9464;44.918;9.670;2022-10-22T14:05:19;34.93;;;21.53;;
18669;SDS011;9464;44.918;9.670;2022-10-22T14:07:47;33.57;;;20.80;;
18669;SDS011;9464;44.918;9.670;2022-10-22T14:10:18;32.43;;;19.93;;
18669;SDS011;9464;44.918;9.670;2022-10-22T14:12:47;38.43;;;21.43;;
18669;SDS011;9464;44.918;9.670;2022-10-22T14:15:19;34.17;;;20.97;;
18669;SDS011;9464;44.918;9.670;2022-10-22T14:17:50;34.63;;;20.13;;
18669;SDS011;9464;44.918;9.670;2022-10-22T14:20:20;39.10;;;19.13;;
18669;SDS011;9464;44.918;9.670;2022-10-22T14:22:49;35.53;;;20.93;;
18669;SDS011;9464;44.918;9.670;2022-10-22T14:25:20;34.77;;;18.97;;
18669;SDS011;9464;44.918;9.670;2022-10-22T14:27:49;29.07;;;18.90;;
18669;SDS011;9464;44.918;9.670;2022-10-22T14:30:18;30.70;;;18.83;;
18669;SDS011;9464;44.918;9.670;2022-10-22T14:32:46;37.00;;;20.13;;
18669;SDS011;9464;44.918;9.670;2022-10-22T14:35:16;31.03;;;19.47;;
18669;SDS011;9464;44.918;9.670;2022-10-22T14:37:44;31.07;;;19.17;;
18669;SDS011;9464;44.918;9.670;2022-10-22T14:40:14;33.63;;;19.50;;
18669;SDS011;9464;44.918;9.670;2022-10-22T14:42:44;34.97;;;20.00;;
18669;SDS011;9464;44.918;9.670;2022-10-22T14:45:15;36.03;;;20.27;;
18669;SDS011;9464;44.918;9.670;2022-10-22T14:47:44;34.77;;;20.37;;
18669;SDS011;9464;44.918;9.670;2022-10-22T14:50:12;35.40;;;20.20;;
18669;SDS011;9464;44.918;9.670;2022-10-22T14:52:40;35.00;;;20.20;;
18669;SDS011;9464;44.918;9.670;2022-10-22T14:55:10;32.87;;;17.83;;
18669;SDS011;9464;44.918;9.670;2022-10-22T14:57:38;32.33;;;18.27;;